createdAt,value
2018-04-16T07:29:39.404Z,19.00
2018-04-16T07:46:49.390Z,18.33
2018-04-16T07:51:43.999Z,19.20
2018-04-16T07:54:11.511Z,18.93
2018-04-16T07:56:39.031Z,18.87
2018-04-16T07:59:06.531Z,19.20
2018-04-16T08:01:34.799Z,18.87
2018-04-16T08:04:02.375Z,18.90
2018-04-16T08:06:30.674Z,17.90
2018-04-16T08:08:58.187Z,18.77
2018-04-16T08:11:25.702Z,19.57
2018-04-16T08:13:53.207Z,18.57
2018-04-16T08:16:20.745Z,19.77
2018-04-16T08:18:48.258Z,18.77
2018-04-16T08:21:15.752Z,19.37
2018-04-16T08:23:43.341Z,18.70
2018-04-16T08:26:10.846Z,16.57
2018-04-16T08:28:38.350Z,16.93
2018-04-16T08:31:05.900Z,17.73
2018-04-16T08:33:33.403Z,17.97
2018-04-16T08:36:00.908Z,16.23
2018-04-16T08:38:28.461Z,15.60
2018-04-16T08:40:55.966Z,17.00
2018-04-16T08:43:23.471Z,17.57
2018-04-16T08:45:51.010Z,16.73
2018-04-16T08:48:19.358Z,16.43
2018-04-16T08:50:46.859Z,17.77
2018-04-16T08:53:15.153Z,17.10
2018-04-16T08:55:42.655Z,15.63
2018-04-16T08:58:10.155Z,15.33
2018-04-16T09:00:38.493Z,17.13
2018-04-16T09:03:05.994Z,16.20
2018-04-16T09:05:34.266Z,16.23
2018-04-16T09:08:01.806Z,16.83
2018-04-16T09:10:29.307Z,16.87
2018-04-16T09:12:56.810Z,17.10
2018-04-16T09:15:24.346Z,15.07
2018-04-16T09:17:51.850Z,15.83
2018-04-16T09:20:19.371Z,15.90
2018-04-16T09:22:46.895Z,14.53
2018-04-16T09:25:15.195Z,13.63
2018-04-16T09:27:42.751Z,15.10
2018-04-16T09:30:10.291Z,16.40
2018-04-16T09:32:37.795Z,15.63
2018-04-16T09:35:05.326Z,13.83
2018-04-16T09:37:32.826Z,15.23
2018-04-16T09:40:01.091Z,13.60
2018-04-16T09:42:28.622Z,13.20
2018-04-16T09:44:56.151Z,12.80
2018-04-16T09:47:23.654Z,12.67
2018-04-16T09:49:51.202Z,13.17
2018-04-16T09:52:18.702Z,13.83
2018-04-16T09:54:46.242Z,14.97
2018-04-16T09:57:13.823Z,13.70
2018-04-16T09:59:41.337Z,12.83
2018-04-16T10:02:14.655Z,13.00
2018-04-16T10:04:42.158Z,12.57
2018-04-16T10:07:09.667Z,13.50
2018-04-16T10:09:37.194Z,13.07
2018-04-16T10:12:04.694Z,11.60
2018-04-16T10:14:33.011Z,12.10
2018-04-16T10:17:01.611Z,12.90
2018-04-16T10:19:29.123Z,12.23
2018-04-16T10:21:56.676Z,13.30
2018-04-16T10:24:24.969Z,13.43
2018-04-16T10:26:52.484Z,13.47
2018-04-16T10:29:20.023Z,12.40
2018-04-16T10:31:47.547Z,11.73
2018-04-16T10:34:15.047Z,11.90
2018-04-16T10:36:42.628Z,13.30
2018-04-16T10:39:10.132Z,12.10
2018-04-16T10:41:37.631Z,11.77
2018-04-16T10:44:05.145Z,10.83
2018-04-16T10:46:32.652Z,11.30
2018-04-16T10:49:00.212Z,11.77
2018-04-16T10:51:27.717Z,12.43
2018-04-16T10:53:55.994Z,10.83
2018-04-16T10:56:23.527Z,11.17
2018-04-16T10:58:51.051Z,11.03
2018-04-16T11:01:18.559Z,10.80
2018-04-16T11:03:46.098Z,10.97
2018-04-16T11:06:13.629Z,11.17
2018-04-16T11:08:41.110Z,10.93
2018-04-16T11:11:08.623Z,11.10
2018-04-16T11:13:36.898Z,10.07
2018-04-16T11:16:04.458Z,10.53
2018-04-16T11:18:32.738Z,9.60
2018-04-16T11:21:00.238Z,9.27
2018-04-16T11:23:27.806Z,10.43
2018-04-16T11:25:55.302Z,9.87
2018-04-16T11:28:22.824Z,10.33
2018-04-16T11:30:50.347Z,12.67
2018-04-16T11:33:17.855Z,10.63
2018-04-16T11:35:45.363Z,9.97
2018-04-16T11:38:13.707Z,10.10
2018-04-16T11:40:41.210Z,11.67
2018-04-16T11:43:09.476Z,11.40
2018-04-16T11:45:37.013Z,11.07
2018-04-16T11:48:04.511Z,9.80
2018-04-16T11:50:32.812Z,10.10
2018-04-16T11:53:00.307Z,9.37
2018-04-16T11:55:27.823Z,10.10
2018-04-16T11:57:55.388Z,11.17
2018-04-16T12:00:22.894Z,10.13
2018-04-16T12:02:50.395Z,8.97
2018-04-16T12:05:17.943Z,9.43
2018-04-16T12:07:46.207Z,9.83
2018-04-16T12:10:13.722Z,10.13
2018-04-16T12:12:41.280Z,10.77
2018-04-16T12:15:08.779Z,9.13
2018-04-16T12:17:36.278Z,9.70
2018-04-16T12:20:03.806Z,9.37
2018-04-16T12:22:31.307Z,7.53
2018-04-16T12:24:58.838Z,7.57
2018-04-16T12:27:26.410Z,8.27
2018-04-16T12:29:53.911Z,8.23
2018-04-16T12:32:21.427Z,8.50
2018-04-16T12:34:48.922Z,7.82
2018-04-16T12:37:16.488Z,7.03
2018-04-16T12:39:43.990Z,7.28
2018-04-16T12:42:11.496Z,8.00
2018-04-16T12:44:39.057Z,8.77
2018-04-16T12:47:06.571Z,8.60
2018-04-16T12:49:34.066Z,7.33
2018-04-16T12:52:02.354Z,6.13
2018-04-16T12:54:29.847Z,6.00
2018-04-16T12:56:57.347Z,6.97
2018-04-16T12:59:25.767Z,8.20
2018-04-16T13:01:53.267Z,5.50
2018-04-16T13:04:20.809Z,5.80
2018-04-16T13:06:48.312Z,5.67
2018-04-16T13:09:15.811Z,6.60
2018-04-16T13:11:43.370Z,7.27
2018-04-16T13:14:10.867Z,6.28
2018-04-16T13:16:38.363Z,5.50
2018-04-16T13:19:05.890Z,6.12
2018-04-16T13:21:33.383Z,6.60
2018-04-16T13:24:00.883Z,6.30
2018-04-16T13:26:29.202Z,6.55
2018-04-16T13:28:56.699Z,6.32
2018-04-16T13:31:24.191Z,7.45
2018-04-16T13:33:51.732Z,7.40
2018-04-16T13:36:19.242Z,6.90
2018-04-16T13:38:46.743Z,6.40
2018-04-16T13:41:14.252Z,7.43
2018-04-16T13:43:41.758Z,8.93
2018-04-16T13:46:09.310Z,7.93
2018-04-16T13:48:36.810Z,7.20
2018-04-16T13:51:04.305Z,7.90
2018-04-16T13:53:31.831Z,8.13
2018-04-16T13:55:59.323Z,7.93
2018-04-16T13:58:26.875Z,8.88
2018-04-16T14:00:54.383Z,8.35
2018-04-16T14:03:21.958Z,7.43
2018-04-16T14:05:49.463Z,9.23
2018-04-16T14:08:16.985Z,9.82
2018-04-16T14:10:44.540Z,9.52
2018-04-16T14:13:12.034Z,5.45
2018-04-16T14:15:39.553Z,7.00
2018-04-16T14:18:07.090Z,7.80
2018-04-16T14:20:35.376Z,7.53
2018-04-16T14:23:02.923Z,6.53
2018-04-16T14:25:31.183Z,7.80
2018-04-16T14:27:58.706Z,6.93
2018-04-16T14:30:26.251Z,6.78
2018-04-16T14:32:53.779Z,6.80
2018-04-16T14:35:21.279Z,7.10
2018-04-16T14:37:48.807Z,7.43
2018-04-16T14:40:16.304Z,7.63
2018-04-16T14:42:43.803Z,8.43
2018-04-16T14:45:11.335Z,8.17
2018-04-16T14:47:38.835Z,9.10
2018-04-16T14:50:06.335Z,9.13
2018-04-16T14:52:33.866Z,9.07
2018-04-16T14:55:01.355Z,7.60
2018-04-16T14:57:28.848Z,7.77
2018-04-16T14:59:56.357Z,8.87
2018-04-16T15:02:23.921Z,16.13
2018-04-16T15:04:51.451Z,16.90
2018-04-16T15:07:18.968Z,17.80
2018-04-16T15:09:47.311Z,18.00
2018-04-16T15:12:14.845Z,17.57
2018-04-16T15:14:42.355Z,16.63
2018-04-16T15:17:09.907Z,16.90
2018-04-16T15:19:38.255Z,17.87
2018-04-16T15:22:05.759Z,16.63
2018-04-16T15:24:33.339Z,16.13
2018-04-16T15:27:00.926Z,16.20
2018-04-16T15:29:28.431Z,16.73
2018-04-16T15:31:56.699Z,16.93
2018-04-16T15:34:24.230Z,16.37
2018-04-16T15:36:51.728Z,16.20
2018-04-16T15:39:19.995Z,16.57
2018-04-16T15:41:47.533Z,16.30
2018-04-16T15:44:15.039Z,15.90
2018-04-16T15:46:42.542Z,14.87
2018-04-16T15:49:10.107Z,14.87
2018-04-16T15:51:37.615Z,14.60
2018-04-16T15:54:05.115Z,14.73
2018-04-16T15:56:32.654Z,15.00
2018-04-16T15:59:00.159Z,14.73
2018-04-16T16:01:27.667Z,14.83
2018-04-16T16:03:55.205Z,15.07
2018-04-16T16:06:22.714Z,15.10
2018-04-16T16:08:50.263Z,15.57
2018-04-16T16:11:17.830Z,14.63
2018-04-16T16:13:45.325Z,14.67
2018-04-16T16:16:12.830Z,14.43
2018-04-16T16:18:40.377Z,15.23
2018-04-16T16:21:08.650Z,14.77
2018-04-16T16:23:36.152Z,15.07
2018-04-16T16:26:03.698Z,14.53
2018-04-16T16:28:31.220Z,15.07
2018-04-16T16:30:58.714Z,13.77
2018-04-16T16:33:26.244Z,14.10
2018-04-16T16:35:53.758Z,14.20
2018-04-16T16:38:21.262Z,14.03
2018-04-16T16:40:48.817Z,13.00
2018-04-16T16:43:16.318Z,14.60
2018-04-16T16:45:43.822Z,14.10
2018-04-16T16:48:11.382Z,14.50
2018-04-16T16:50:38.898Z,14.53
2018-04-16T16:53:07.317Z,14.73
2018-04-16T16:55:34.882Z,13.60
2018-04-16T16:58:02.383Z,14.80
2018-04-16T17:00:29.871Z,13.50
2018-04-16T17:02:57.496Z,12.97
2018-04-16T17:05:24.986Z,12.67
2018-04-16T17:07:52.506Z,13.10
2018-04-16T17:10:20.061Z,12.87
2018-04-16T17:12:47.589Z,12.93
2018-04-16T17:15:15.107Z,12.60
2018-04-16T17:17:42.663Z,12.67
2018-04-16T17:20:10.565Z,12.13
2018-04-16T17:22:38.078Z,11.50
2018-04-16T17:25:05.651Z,11.17
2018-04-16T17:27:33.155Z,11.10
2018-04-16T17:30:00.655Z,9.97
2018-04-16T17:32:28.303Z,11.17
2018-04-16T17:34:55.803Z,9.73
2018-04-16T17:37:23.323Z,10.87
2018-04-16T17:39:50.859Z,9.60
2018-04-16T17:42:18.416Z,10.07
2018-04-16T17:44:45.886Z,10.07
2018-04-16T17:47:13.455Z,11.40
2018-04-16T17:49:40.955Z,11.83
2018-04-16T17:52:08.451Z,11.93
2018-04-16T17:54:35.988Z,12.27
2018-04-16T17:57:03.495Z,13.80
2018-04-16T17:59:31.287Z,13.97
2018-04-16T18:01:58.851Z,13.77
2018-04-16T18:04:26.352Z,13.07
2018-04-16T18:06:54.615Z,12.80
2018-04-16T18:09:22.199Z,12.23
2018-04-16T18:11:49.694Z,12.90
2018-04-16T18:14:17.205Z,12.67
2018-04-16T18:16:44.755Z,12.53
2018-04-16T18:19:12.275Z,13.17
2018-04-16T18:21:39.775Z,13.37
2018-04-16T18:24:07.299Z,12.53
2018-04-16T18:26:34.798Z,13.33
2018-04-16T18:29:02.299Z,12.37
2018-04-16T18:31:29.902Z,13.70
2018-04-16T18:33:57.417Z,12.70
2018-04-16T18:36:24.918Z,13.23
2018-04-16T18:38:52.499Z,11.33
2018-04-16T18:41:19.997Z,11.43
2018-04-16T18:43:47.546Z,11.17
2018-04-16T18:46:15.084Z,11.73
2018-04-16T18:48:42.593Z,11.10
2018-04-16T18:51:10.190Z,10.10
2018-04-16T18:53:37.682Z,10.77
2018-04-16T18:56:05.946Z,9.33
2018-04-16T18:58:33.490Z,9.70
2018-04-16T19:01:01.005Z,9.83
2018-04-16T19:03:28.547Z,9.67
2018-04-16T19:05:56.072Z,9.37
2018-04-16T19:08:23.563Z,9.37
2018-04-16T19:10:51.061Z,8.97
2018-04-16T19:13:18.635Z,9.57
2018-04-16T19:15:46.150Z,9.53
2018-04-16T19:18:13.651Z,8.73
2018-04-16T19:20:49.124Z,8.90
2018-04-16T19:23:16.611Z,9.50
2018-04-16T19:25:44.117Z,9.30
2018-04-16T19:28:17.103Z,8.40
2018-04-16T19:30:44.598Z,9.63
2018-04-16T19:33:17.717Z,9.30
2018-04-16T19:35:50.010Z,9.97
2018-04-16T19:38:17.515Z,9.50
2018-04-16T19:40:45.068Z,9.27
2018-04-16T19:43:12.563Z,9.13
2018-04-16T19:45:40.097Z,8.93
2018-04-16T19:48:07.666Z,8.63
2018-04-16T19:50:35.164Z,9.03
2018-04-16T19:53:02.699Z,9.10
2018-04-16T19:55:35.955Z,9.90
2018-04-16T19:58:09.151Z,12.13
2018-04-16T20:00:36.699Z,11.90
2018-04-16T20:03:09.940Z,11.37
2018-04-16T20:05:37.475Z,10.97
2018-04-16T20:08:04.971Z,13.10
2018-04-16T20:10:32.470Z,13.50
2018-04-16T20:13:00.043Z,12.97
2018-04-16T20:15:27.558Z,13.00
2018-04-16T20:17:55.058Z,11.87
2018-04-16T20:20:22.616Z,11.63
2018-04-16T20:22:50.131Z,10.23
2018-04-16T20:25:18.426Z,10.10
2018-04-16T20:27:45.951Z,9.87
2018-04-16T20:30:13.449Z,9.73
2018-04-16T20:32:41.716Z,9.63
2018-04-16T20:35:09.242Z,9.77
2018-04-16T20:37:36.738Z,11.87
2018-04-16T20:40:05.003Z,14.40
2018-04-16T20:42:32.567Z,17.40
2018-04-16T20:45:00.059Z,16.90
2018-04-16T20:47:27.562Z,17.37
2018-04-16T20:49:55.095Z,19.53
2018-04-16T20:52:22.591Z,18.90
2018-04-16T20:54:50.094Z,21.70
2018-04-16T20:57:18.475Z,21.60
2018-04-16T20:59:45.975Z,19.70
2018-04-16T21:02:13.474Z,19.97
2018-04-16T21:04:41.063Z,22.03
2018-04-16T21:07:08.551Z,18.63
2018-04-16T21:09:36.042Z,19.00
2018-04-16T21:12:03.583Z,18.23
2018-04-16T21:14:31.105Z,18.03
2018-04-16T21:16:59.357Z,20.27
2018-04-16T21:19:26.910Z,19.73
2018-04-16T21:21:54.413Z,19.63
2018-04-16T21:24:21.906Z,19.97
2018-04-16T21:26:49.426Z,19.80
2018-04-16T21:29:16.922Z,20.63
2018-04-16T21:31:44.419Z,23.23
2018-04-16T21:34:11.966Z,20.83
2018-04-16T21:36:39.459Z,17.83
2018-04-16T21:39:06.950Z,22.43
2018-04-16T21:41:34.513Z,22.97
2018-04-16T21:44:02.044Z,24.13
2018-04-16T21:46:29.550Z,23.73
2018-04-16T21:48:57.095Z,26.67
2018-04-16T21:51:24.603Z,30.20
2018-04-16T21:53:52.862Z,31.53
2018-04-16T21:56:20.385Z,31.30
2018-04-16T21:58:47.883Z,33.43
2018-04-16T22:01:15.390Z,33.10
2018-04-16T22:03:42.958Z,32.57
2018-04-16T22:06:10.459Z,33.30
2018-04-16T22:08:37.955Z,33.03
2018-04-16T22:11:06.259Z,33.60
2018-04-16T22:13:33.754Z,34.40
2018-04-16T22:16:01.249Z,33.43
2018-04-16T22:18:29.554Z,31.60
2018-04-16T22:20:57.050Z,32.73
2018-04-16T22:23:24.545Z,35.30
2018-04-16T22:25:52.838Z,33.27
2018-04-16T22:28:20.342Z,33.53
2018-04-16T22:30:47.846Z,35.33
2018-04-16T22:33:16.153Z,34.93
2018-04-16T22:35:43.659Z,34.10
2018-04-16T22:38:11.156Z,31.73
2018-04-16T22:40:39.490Z,35.07
2018-04-16T22:43:06.991Z,33.73
2018-04-16T22:45:35.262Z,34.67
2018-04-16T22:48:02.790Z,35.27
2018-04-16T22:50:30.282Z,34.70
2018-04-16T22:52:58.543Z,33.23
2018-04-16T22:55:26.086Z,34.77
2018-04-16T22:57:53.587Z,32.47
2018-04-16T23:00:21.850Z,33.60
2018-04-16T23:02:49.372Z,33.73
2018-04-16T23:05:16.898Z,34.40
2018-04-16T23:07:44.392Z,32.47
2018-04-16T23:10:11.962Z,33.90
2018-04-16T23:12:39.459Z,33.13
2018-04-16T23:15:06.958Z,33.93
2018-04-16T23:17:35.258Z,32.47
2018-04-16T23:20:02.760Z,32.80
2018-04-16T23:22:31.022Z,31.57
2018-04-16T23:24:58.599Z,32.60
2018-04-16T23:27:26.099Z,33.03
2018-04-16T23:29:53.590Z,33.30
2018-04-16T23:32:21.170Z,32.20
2018-04-16T23:34:48.672Z,32.73
2018-04-16T23:37:16.182Z,31.53
2018-04-16T23:39:43.722Z,30.70
2018-04-16T23:42:11.221Z,31.57
2018-04-16T23:44:39.486Z,33.13
2018-04-16T23:47:07.035Z,33.00
2018-04-16T23:49:34.527Z,33.27
2018-04-16T23:52:03.698Z,31.63
2018-04-16T23:54:31.276Z,31.27
2018-04-16T23:56:58.770Z,32.27
2018-04-16T23:59:26.280Z,31.60
